sensor_id;sensor_type;location;lat;lon;timestamp;temperature;humidity
17859;DHT22;35426;30.698;104.050;2022-12-08T00:00:37;10.40;99.90
17859;DHT22;35426;30.698;104.050;2022-12-08T00:03:14;10.50;99.90
17859;DHT22;35426;30.698;104.050;2022-12-08T00:05:49;10.70;99.90
17859;DHT22;35426;30.698;104.050;2022-12-08T00:08:39;10.60;99.90
17859;DHT22;35426;30.698;104.050;2022-12-08T00:11:29;10.60;99.90
17859;DHT22;35426;30.698;104.050;2022-12-08T00:14:03;10.70;99.90
17859;DHT22;35426;30.698;104.050;2022-12-08T00:16:37;10.70;99.90
17859;DHT22;35426;30.698;104.050;2022-12-08T00:19:13;10.70;99.90
17859;DHT22;35426;30.698;104.050;2022-12-08T00:21:47;10.50;99.90
17859;DHT22;35426;30.698;104.050;2022-12-08T00:24:22;10.50;99.90
17859;DHT22;35426;30.698;104.050;2022-12-08T00:26:59;10.50;99.90
17859;DHT22;35426;30.698;104.050;2022-12-08T00:29:32;10.60;99.90
17859;DHT22;35426;30.698;104.050;2022-12-08T00:32:07;10.60;99.90
17859;DHT22;35426;30.698;104.050;2022-12-08T00:34:43;10.60;99.90
17859;DHT22;35426;30.698;104.050;2022-12-08T00:37:18;10.70;99.90
17859;DHT22;35426;30.698;104.050;2022-12-08T00:39:51;10.70;99.90
17859;DHT22;35426;30.698;104.050;2022-12-08T00:42:25;10.60;99.90
17859;DHT22;35426;30.698;104.050;2022-12-08T00:45:00;10.80;99.90
17859;DHT22;35426;30.698;104.050;2022-12-08T00:47:34;10.90;99.90
17859;DHT22;35426;30.698;104.050;2022-12-08T00:50:11;10.70;99.90
17859;DHT22;35426;30.698;104.050;2022-12-08T00:52:45;10.70;99.90
17859;DHT22;35426;30.698;104.050;2022-12-08T00:55:19;10.80;99.90
17859;DHT22;35426;30.698;104.050;2022-12-08T00:57:53;10.80;99.90
17859;DHT22;35426;30.698;104.050;2022-12-08T01:00:28;10.90;99.90
17859;DHT22;35426;30.698;104.050;2022-12-08T01:03:02;10.90;99.90
17859;DHT22;35426;30.698;104.050;2022-12-08T01:05:38;11.00;99.90
17859;DHT22;35426;30.698;104.050;2022-12-08T01:08:12;10.90;99.90
17859;DHT22;35426;30.698;104.050;2022-12-08T01:10:47;10.90;99.90
17859;DHT22;35426;30.698;104.050;2022-12-08T01:13:21;10.90;99.90
17859;DHT22;35426;30.698;104.050;2022-12-08T01:15:55;11.00;99.90
17859;DHT22;35426;30.698;104.050;2022-12-08T01:18:30;11.00;99.90
17859;DHT22;35426;30.698;104.050;2022-12-08T01:21:07;11.00;99.90
17859;DHT22;35426;30.698;104.050;2022-12-08T01:23:41;11.20;99.90
17859;DHT22;35426;30.698;104.050;2022-12-08T01:26:16;11.10;99.90
17859;DHT22;35426;30.698;104.050;2022-12-08T01:28:50;11.20;99.90
17859;DHT22;35426;30.698;104.050;2022-12-08T01:31:25;11.20;99.90
17859;DHT22;35426;30.698;104.050;2022-12-08T01:33:59;11.20;99.90
17859;DHT22;35426;30.698;104.050;2022-12-08T01:36:35;11.10;99.90
17859;DHT22;35426;30.698;104.050;2022-12-08T01:39:14;11.20;99.90
17859;DHT22;35426;30.698;104.050;2022-12-08T01:41:49;11.20;99.90
17859;DHT22;35426;30.698;104.050;2022-12-08T01:44:55;11.20;99.90
17859;DHT22;35426;30.698;104.050;2022-12-08T01:47:37;11.30;99.90
17859;DHT22;35426;30.698;104.050;2022-12-08T01:50:15;11.40;99.90
17859;DHT22;35426;30.698;104.050;2022-12-08T01:52:56;11.40;99.90
17859;DHT22;35426;30.698;104.050;2022-12-08T01:55:34;11.50;99.90
17859;DHT22;35426;30.698;104.050;2022-12-08T01:58:14;11.50;99.90
17859;DHT22;35426;30.698;104.050;2022-12-08T02:00:51;11.50;99.90
17859;DHT22;35426;30.698;104.050;2022-12-08T02:03:27;11.60;99.90
17859;DHT22;35426;30.698;104.050;2022-12-08T02:06:03;11.60;99.90
17859;DHT22;35426;30.698;104.050;2022-12-08T02:08:40;11.80;99.90
17859;DHT22;35426;30.698;104.050;2022-12-08T02:11:15;11.70;99.90
17859;DHT22;35426;30.698;104.050;2022-12-08T02:13:50;11.60;99.90
17859;DHT22;35426;30.698;104.050;2022-12-08T02:16:33;11.60;99.90
17859;DHT22;35426;30.698;104.050;2022-12-08T02:19:38;11.60;99.90
17859;DHT22;35426;30.698;104.050;2022-12-08T02:22:18;11.80;99.90
17859;DHT22;35426;30.698;104.050;2022-12-08T02:24:59;11.80;99.90
17859;DHT22;35426;30.698;104.050;2022-12-08T02:27:45;12.00;99.90
17859;DHT22;35426;30.698;104.050;2022-12-08T02:30:28;12.10;99.90
17859;DHT22;35426;30.698;104.050;2022-12-08T02:36:15;12.10;99.90
17859;DHT22;35426;30.698;104.050;2022-12-08T02:38:58;12.00;99.90
17859;DHT22;35426;30.698;104.050;2022-12-08T02:41:40;12.20;99.90
17859;DHT22;35426;30.698;104.050;2022-12-08T02:44:21;12.20;99.90
17859;DHT22;35426;30.698;104.050;2022-12-08T02:46:59;12.30;99.90
17859;DHT22;35426;30.698;104.050;2022-12-08T02:49:36;12.50;99.90
17859;DHT22;35426;30.698;104.050;2022-12-08T02:52:42;12.40;99.90
17859;DHT22;35426;30.698;104.050;2022-12-08T02:55:22;12.60;99.90
17859;DHT22;35426;30.698;104.050;2022-12-08T02:58:23;12.60;99.90
17859;DHT22;35426;30.698;104.050;2022-12-08T03:01:15;12.70;99.90
17859;DHT22;35426;30.698;104.050;2022-12-08T03:04:01;13.00;99.90
17859;DHT22;35426;30.698;104.050;2022-12-08T03:06:44;12.90;99.90
17859;DHT22;35426;30.698;104.050;2022-12-08T03:09:27;12.90;99.90
17859;DHT22;35426;30.698;104.050;2022-12-08T03:12:08;13.20;99.90
17859;DHT22;35426;30.698;104.050;2022-12-08T03:14:49;13.10;99.90
17859;DHT22;35426;30.698;104.050;2022-12-08T03:17:27;13.00;99.90
17859;DHT22;35426;30.698;104.050;2022-12-08T03:20:04;13.20;99.90
17859;DHT22;35426;30.698;104.050;2022-12-08T03:22:41;13.50;99.90
17859;DHT22;35426;30.698;104.050;2022-12-08T03:25:20;13.40;99.90
17859;DHT22;35426;30.698;104.050;2022-12-08T03:27:54;13.40;99.90
17859;DHT22;35426;30.698;104.050;2022-12-08T03:30:30;13.30;99.90
17859;DHT22;35426;30.698;104.050;2022-12-08T03:33:08;13.30;99.90
17859;DHT22;35426;30.698;104.050;2022-12-08T03:35:46;13.40;99.90
17859;DHT22;35426;30.698;104.050;2022-12-08T03:38:22;13.00;99.90
17859;DHT22;35426;30.698;104.050;2022-12-08T03:40:58;13.30;99.90
17859;DHT22;35426;30.698;104.050;2022-12-08T03:43:49;13.50;99.90
17859;DHT22;35426;30.698;104.050;2022-12-08T03:46:25;13.60;99.90
17859;DHT22;35426;30.698;104.050;2022-12-08T03:48:57;13.80;99.90
17859;DHT22;35426;30.698;104.050;2022-12-08T03:51:31;14.00;99.90
17859;DHT22;35426;30.698;104.050;2022-12-08T03:54:05;13.80;99.90
17859;DHT22;35426;30.698;104.050;2022-12-08T03:56:44;13.80;99.90
17859;DHT22;35426;30.698;104.050;2022-12-08T03:59:19;13.80;99.90
17859;DHT22;35426;30.698;104.050;2022-12-08T04:01:57;13.90;99.90
17859;DHT22;35426;30.698;104.050;2022-12-08T04:04:34;14.10;99.90
17859;DHT22;35426;30.698;104.050;2022-12-08T04:07:10;14.20;99.90
17859;DHT22;35426;30.698;104.050;2022-12-08T04:09:47;14.10;99.90
17859;DHT22;35426;30.698;104.050;2022-12-08T04:12:27;14.00;99.90
17859;DHT22;35426;30.698;104.050;2022-12-08T04:15:05;14.10;99.90
17859;DHT22;35426;30.698;104.050;2022-12-08T04:17:41;14.40;99.90
17859;DHT22;35426;30.698;104.050;2022-12-08T04:20:18;14.50;99.90
17859;DHT22;35426;30.698;104.050;2022-12-08T04:22:54;14.10;99.90
17859;DHT22;35426;30.698;104.050;2022-12-08T04:25:31;13.90;99.90
17859;DHT22;35426;30.698;104.050;2022-12-08T04:28:11;13.80;99.90
17859;DHT22;35426;30.698;104.050;2022-12-08T04:30:49;13.90;99.90
17859;DHT22;35426;30.698;104.050;2022-12-08T04:33:26;14.00;99.90
17859;DHT22;35426;30.698;104.050;2022-12-08T04:36:04;14.00;99.90
17859;DHT22;35426;30.698;104.050;2022-12-08T04:38:41;14.00;99.90
17859;DHT22;35426;30.698;104.050;2022-12-08T04:41:18;13.80;99.90
17859;DHT22;35426;30.698;104.050;2022-12-08T04:43:57;14.10;99.90
17859;DHT22;35426;30.698;104.050;2022-12-08T04:46:34;14.50;99.90
17859;DHT22;35426;30.698;104.050;2022-12-08T04:49:14;14.70;99.90
17859;DHT22;35426;30.698;104.050;2022-12-08T04:51:51;14.70;99.90
17859;DHT22;35426;30.698;104.050;2022-12-08T04:54:33;14.50;99.90
17859;DHT22;35426;30.698;104.050;2022-12-08T04:57:10;14.30;99.90
17859;DHT22;35426;30.698;104.050;2022-12-08T04:59:50;14.30;99.90
17859;DHT22;35426;30.698;104.050;2022-12-08T05:02:27;14.50;99.90
17859;DHT22;35426;30.698;104.050;2022-12-08T05:05:04;14.70;99.90
17859;DHT22;35426;30.698;104.050;2022-12-08T05:07:39;14.70;99.90
17859;DHT22;35426;30.698;104.050;2022-12-08T05:10:13;14.50;99.90
17859;DHT22;35426;30.698;104.050;2022-12-08T05:12:47;14.70;99.90
17859;DHT22;35426;30.698;104.050;2022-12-08T05:15:23;14.90;99.90
17859;DHT22;35426;30.698;104.050;2022-12-08T05:17:58;14.70;99.90
17859;DHT22;35426;30.698;104.050;2022-12-08T05:20:32;14.90;99.90
17859;DHT22;35426;30.698;104.050;2022-12-08T05:23:07;15.00;99.90
17859;DHT22;35426;30.698;104.050;2022-12-08T05:25:41;14.80;99.90
17859;DHT22;35426;30.698;104.050;2022-12-08T05:28:16;14.60;99.90
17859;DHT22;35426;30.698;104.050;2022-12-08T05:31:13;14.50;99.90
17859;DHT22;35426;30.698;104.050;2022-12-08T05:33:49;14.60;99.90
17859;DHT22;35426;30.698;104.050;2022-12-08T05:36:30;14.70;99.90
17859;DHT22;35426;30.698;104.050;2022-12-08T05:39:04;14.90;99.90
17859;DHT22;35426;30.698;104.050;2022-12-08T05:41:39;14.60;99.90
17859;DHT22;35426;30.698;104.050;2022-12-08T05:44:13;14.60;99.90
17859;DHT22;35426;30.698;104.050;2022-12-08T05:46:49;14.60;99.90
17859;DHT22;35426;30.698;104.050;2022-12-08T05:49:24;14.40;99.90
17859;DHT22;35426;30.698;104.050;2022-12-08T05:51:58;14.40;99.90
17859;DHT22;35426;30.698;104.050;2022-12-08T05:54:32;14.70;99.90
17859;DHT22;35426;30.698;104.050;2022-12-08T05:57:06;14.50;99.90
17859;DHT22;35426;30.698;104.050;2022-12-08T05:59:41;14.60;99.90
17859;DHT22;35426;30.698;104.050;2022-12-08T06:02:16;14.40;99.90
17859;DHT22;35426;30.698;104.050;2022-12-08T06:04:51;14.50;99.90
17859;DHT22;35426;30.698;104.050;2022-12-08T06:07:25;14.60;99.90
17859;DHT22;35426;30.698;104.050;2022-12-08T06:09:59;14.60;99.90
17859;DHT22;35426;30.698;104.050;2022-12-08T06:12:34;14.60;99.90
17859;DHT22;35426;30.698;104.050;2022-12-08T06:15:09;14.50;99.90
17859;DHT22;35426;30.698;104.050;2022-12-08T06:17:45;14.60;99.90
17859;DHT22;35426;30.698;104.050;2022-12-08T06:20:19;14.60;99.90
17859;DHT22;35426;30.698;104.050;2022-12-08T06:22:54;14.70;99.90
17859;DHT22;35426;30.698;104.050;2022-12-08T06:25:28;14.50;99.90
17859;DHT22;35426;30.698;104.050;2022-12-08T06:28:04;14.60;99.90
17859;DHT22;35426;30.698;104.050;2022-12-08T06:30:38;14.80;99.90
17859;DHT22;35426;30.698;104.050;2022-12-08T06:33:14;14.70;99.90
17859;DHT22;35426;30.698;104.050;2022-12-08T06:35:49;14.70;99.90
17859;DHT22;35426;30.698;104.050;2022-12-08T06:38:23;14.40;99.90
17859;DHT22;35426;30.698;104.050;2022-12-08T06:40:59;14.50;99.90
17859;DHT22;35426;30.698;104.050;2022-12-08T06:43:33;14.20;99.90
17859;DHT22;35426;30.698;104.050;2022-12-08T06:46:08;14.60;99.90
17859;DHT22;35426;30.698;104.050;2022-12-08T06:48:45;14.50;99.90
17859;DHT22;35426;30.698;104.050;2022-12-08T06:51:21;14.50;99.90
17859;DHT22;35426;30.698;104.050;2022-12-08T06:53:55;14.70;99.90
17859;DHT22;35426;30.698;104.050;2022-12-08T06:56:30;14.60;99.90
17859;DHT22;35426;30.698;104.050;2022-12-08T06:59:05;14.50;99.90
17859;DHT22;35426;30.698;104.050;2022-12-08T07:01:39;14.50;99.90
17859;DHT22;35426;30.698;104.050;2022-12-08T07:04:16;14.30;99.90
17859;DHT22;35426;30.698;104.050;2022-12-08T07:06:51;14.30;99.90
17859;DHT22;35426;30.698;104.050;2022-12-08T07:09:25;14.30;99.90
17859;DHT22;35426;30.698;104.050;2022-12-08T07:11:59;14.30;99.90
17859;DHT22;35426;30.698;104.050;2022-12-08T07:14:33;14.30;99.90
17859;DHT22;35426;30.698;104.050;2022-12-08T07:17:07;14.40;99.90
17859;DHT22;35426;30.698;104.050;2022-12-08T07:19:44;14.30;99.90
17859;DHT22;35426;30.698;104.050;2022-12-08T07:22:18;14.30;99.90
17859;DHT22;35426;30.698;104.050;2022-12-08T07:24:52;14.10;99.90
17859;DHT22;35426;30.698;104.050;2022-12-08T07:27:27;14.30;99.90
17859;DHT22;35426;30.698;104.050;2022-12-08T07:30:01;14.30;99.90
17859;DHT22;35426;30.698;104.050;2022-12-08T07:32:36;14.10;99.90
17859;DHT22;35426;30.698;104.050;2022-12-08T07:35:13;14.10;99.90
17859;DHT22;35426;30.698;104.050;2022-12-08T07:37:47;14.30;99.90
17859;DHT22;35426;30.698;104.050;2022-12-08T07:40:22;14.50;99.90
17859;DHT22;35426;30.698;104.050;2022-12-08T07:42:56;14.50;99.90
17859;DHT22;35426;30.698;104.050;2022-12-08T07:45:31;14.50;99.90
17859;DHT22;35426;30.698;104.050;2022-12-08T07:48:06;14.30;99.90
17859;DHT22;35426;30.698;104.050;2022-12-08T07:50:42;14.30;99.90
17859;DHT22;35426;30.698;104.050;2022-12-08T07:53:16;14.40;99.90
17859;DHT22;35426;30.698;104.050;2022-12-08T07:55:50;14.30;99.90
17859;DHT22;35426;30.698;104.050;2022-12-08T07:58:25;14.20;99.90
17859;DHT22;35426;30.698;104.050;2022-12-08T08:00:59;14.10;99.90
17859;DHT22;35426;30.698;104.050;2022-12-08T08:03:34;14.00;99.90
17859;DHT22;35426;30.698;104.050;2022-12-08T08:06:10;14.00;99.90
17859;DHT22;35426;30.698;104.050;2022-12-08T08:08:44;14.00;99.90
17859;DHT22;35426;30.698;104.050;2022-12-08T08:11:18;13.90;99.90
17859;DHT22;35426;30.698;104.050;2022-12-08T08:13:53;14.00;99.90
17859;DHT22;35426;30.698;104.050;2022-12-08T08:16:27;13.90;99.90
17859;DHT22;35426;30.698;104.050;2022-12-08T08:19:07;13.80;99.90
17859;DHT22;35426;30.698;104.050;2022-12-08T08:21:45;13.80;99.90
17859;DHT22;35426;30.698;104.050;2022-12-08T08:24:19;13.80;99.90
17859;DHT22;35426;30.698;104.050;2022-12-08T08:26:54;13.70;99.90
17859;DHT22;35426;30.698;104.050;2022-12-08T08:29:29;13.60;99.90
17859;DHT22;35426;30.698;104.050;2022-12-08T08:32:03;13.60;99.90
17859;DHT22;35426;30.698;104.050;2022-12-08T08:34:37;13.60;99.90
17859;DHT22;35426;30.698;104.050;2022-12-08T08:37:14;13.60;99.90
17859;DHT22;35426;30.698;104.050;2022-12-08T08:39:49;13.60;99.90
17859;DHT22;35426;30.698;104.050;2022-12-08T08:42:23;13.60;99.90
17859;DHT22;35426;30.698;104.050;2022-12-08T08:44:57;13.40;99.90
17859;DHT22;35426;30.698;104.050;2022-12-08T08:47:32;13.40;99.90
17859;DHT22;35426;30.698;104.050;2022-12-08T08:50:07;13.40;99.90
17859;DHT22;35426;30.698;104.050;2022-12-08T08:52:43;13.40;99.90
17859;DHT22;35426;30.698;104.050;2022-12-08T08:55:26;13.30;99.90
17859;DHT22;35426;30.698;104.050;2022-12-08T08:58:40;13.40;99.90
17859;DHT22;35426;30.698;104.050;2022-12-08T09:01:16;13.50;99.90
17859;DHT22;35426;30.698;104.050;2022-12-08T09:03:52;13.40;99.90
17859;DHT22;35426;30.698;104.050;2022-12-08T09:06:26;13.30;99.90
17859;DHT22;35426;30.698;104.050;2022-12-08T09:09:03;13.30;99.90
17859;DHT22;35426;30.698;104.050;2022-12-08T09:11:38;13.20;99.90
17859;DHT22;35426;30.698;104.050;2022-12-08T09:14:12;13.20;99.90
17859;DHT22;35426;30.698;104.050;2022-12-08T09:16:47;13.30;99.90
17859;DHT22;35426;30.698;104.050;2022-12-08T09:19:21;13.30;99.90
17859;DHT22;35426;30.698;104.050;2022-12-08T09:21:55;13.30;99.90
17859;DHT22;35426;30.698;104.050;2022-12-08T09:24:32;13.30;99.90
17859;DHT22;35426;30.698;104.050;2022-12-08T09:27:06;13.10;99.90
17859;DHT22;35426;30.698;104.050;2022-12-08T09:29:40;13.10;99.90
17859;DHT22;35426;30.698;104.050;2022-12-08T09:32:15;13.00;99.90
17859;DHT22;35426;30.698;104.050;2022-12-08T09:34:50;12.90;99.90
17859;DHT22;35426;30.698;104.050;2022-12-08T09:37:25;12.90;99.90
17859;DHT22;35426;30.698;104.050;2022-12-08T09:40:01;12.80;99.90
17859;DHT22;35426;30.698;104.050;2022-12-08T09:42:43;12.70;99.90
17859;DHT22;35426;30.698;104.050;2022-12-08T09:45:21;12.70;99.90
17859;DHT22;35426;30.698;104.050;2022-12-08T09:48:01;12.60;99.90
17859;DHT22;35426;30.698;104.050;2022-12-08T09:50:39;12.70;99.90
17859;DHT22;35426;30.698;104.050;2022-12-08T09:53:17;12.60;99.90
17859;DHT22;35426;30.698;104.050;2022-12-08T09:55:56;12.60;99.90
17859;DHT22;35426;30.698;104.050;2022-12-08T09:58:46;12.60;99.90
17859;DHT22;35426;30.698;104.050;2022-12-08T10:01:26;12.50;99.90
17859;DHT22;35426;30.698;104.050;2022-12-08T10:04:01;12.50;99.90
17859;DHT22;35426;30.698;104.050;2022-12-08T10:06:40;12.40;99.90
17859;DHT22;35426;30.698;104.050;2022-12-08T10:09:22;12.40;99.90
17859;DHT22;35426;30.698;104.050;2022-12-08T10:12:08;12.40;99.90
17859;DHT22;35426;30.698;104.050;2022-12-08T10:14:49;12.40;99.90
17859;DHT22;35426;30.698;104.050;2022-12-08T10:17:26;12.30;99.90
17859;DHT22;35426;30.698;104.050;2022-12-08T10:20:05;12.30;99.90
17859;DHT22;35426;30.698;104.050;2022-12-08T10:22:44;12.10;99.90
17859;DHT22;35426;30.698;104.050;2022-12-08T10:25:21;12.20;99.90
17859;DHT22;35426;30.698;104.050;2022-12-08T10:28:01;12.20;99.90
17859;DHT22;35426;30.698;104.050;2022-12-08T10:30:36;12.20;99.90
17859;DHT22;35426;30.698;104.050;2022-12-08T10:33:17;12.20;99.90
17859;DHT22;35426;30.698;104.050;2022-12-08T10:35:53;12.10;99.90
17859;DHT22;35426;30.698;104.050;2022-12-08T10:38:30;12.10;99.90
17859;DHT22;35426;30.698;104.050;2022-12-08T10:41:11;12.10;99.90
17859;DHT22;35426;30.698;104.050;2022-12-08T10:43:53;12.20;99.90
17859;DHT22;35426;30.698;104.050;2022-12-08T10:46:32;12.20;99.90
17859;DHT22;35426;30.698;104.050;2022-12-08T10:49:20;12.10;99.90
17859;DHT22;35426;30.698;104.050;2022-12-08T10:52:01;12.10;99.90
17859;DHT22;35426;30.698;104.050;2022-12-08T10:58:23;12.10;99.90
17859;DHT22;35426;30.698;104.050;2022-12-08T11:01:03;12.10;99.90
17859;DHT22;35426;30.698;104.050;2022-12-08T11:03:43;12.10;99.90
17859;DHT22;35426;30.698;104.050;2022-12-08T11:06:20;12.10;99.90
17859;DHT22;35426;30.698;104.050;2022-12-08T11:09:02;12.10;99.90
17859;DHT22;35426;30.698;104.050;2022-12-08T11:11:48;12.10;99.90
17859;DHT22;35426;30.698;104.050;2022-12-08T11:14:27;12.10;99.90
17859;DHT22;35426;30.698;104.050;2022-12-08T11:17:06;12.00;99.90
17859;DHT22;35426;30.698;104.050;2022-12-08T11:19:44;12.10;99.90
17859;DHT22;35426;30.698;104.050;2022-12-08T11:22:24;12.10;99.90
17859;DHT22;35426;30.698;104.050;2022-12-08T11:25:08;12.10;99.90
17859;DHT22;35426;30.698;104.050;2022-12-08T11:27:45;12.10;99.90
17859;DHT22;35426;30.698;104.050;2022-12-08T11:30:22;12.10;99.90
17859;DHT22;35426;30.698;104.050;2022-12-08T11:33:02;12.10;99.90
17859;DHT22;35426;30.698;104.050;2022-12-08T11:35:43;12.10;99.90
17859;DHT22;35426;30.698;104.050;2022-12-08T11:38:21;12.20;99.90
17859;DHT22;35426;30.698;104.050;2022-12-08T11:41:03;12.10;99.90
17859;DHT22;35426;30.698;104.050;2022-12-08T11:43:57;12.10;99.90
17859;DHT22;35426;30.698;104.050;2022-12-08T11:46:38;12.10;99.90
17859;DHT22;35426;30.698;104.050;2022-12-08T11:49:17;12.10;99.90
17859;DHT22;35426;30.698;104.050;2022-12-08T11:51:55;12.10;99.90
17859;DHT22;35426;30.698;104.050;2022-12-08T11:54:33;12.10;99.90
17859;DHT22;35426;30.698;104.050;2022-12-08T11:57:12;12.10;99.90
17859;DHT22;35426;30.698;104.050;2022-12-08T11:59:53;12.10;99.90
17859;DHT22;35426;30.698;104.050;2022-12-08T12:02:42;12.00;99.90
17859;DHT22;35426;30.698;104.050;2022-12-08T12:05:30;12.00;99.90
17859;DHT22;35426;30.698;104.050;2022-12-08T12:08:49;12.00;99.90
17859;DHT22;35426;30.698;104.050;2022-12-08T12:11:34;12.00;99.90
17859;DHT22;35426;30.698;104.050;2022-12-08T12:15:06;12.00;99.90
17859;DHT22;35426;30.698;104.050;2022-12-08T12:17:51;11.90;99.90
17859;DHT22;35426;30.698;104.050;2022-12-08T12:20:35;12.00;99.90
17859;DHT22;35426;30.698;104.050;2022-12-08T12:23:18;12.00;99.90
17859;DHT22;35426;30.698;104.050;2022-12-08T12:26:00;11.90;99.90
17859;DHT22;35426;30.698;104.050;2022-12-08T12:28:42;11.90;99.90
17859;DHT22;35426;30.698;104.050;2022-12-08T12:31:25;11.90;99.90
17859;DHT22;35426;30.698;104.050;2022-12-08T12:34:10;11.90;99.90
17859;DHT22;35426;30.698;104.050;2022-12-08T12:36:53;11.90;99.90
17859;DHT22;35426;30.698;104.050;2022-12-08T12:39:33;11.90;99.90
17859;DHT22;35426;30.698;104.050;2022-12-08T12:42:37;11.90;99.90
17859;DHT22;35426;30.698;104.050;2022-12-08T12:45:27;11.90;99.90
17859;DHT22;35426;30.698;104.050;2022-12-08T12:48:23;11.90;99.90
17859;DHT22;35426;30.698;104.050;2022-12-08T12:51:00;11.90;99.90
17859;DHT22;35426;30.698;104.050;2022-12-08T12:54:21;11.90;99.90
17859;DHT22;35426;30.698;104.050;2022-12-08T12:57:15;11.90;99.90
17859;DHT22;35426;30.698;104.050;2022-12-08T13:00:16;12.00;99.90
17859;DHT22;35426;30.698;104.050;2022-12-08T13:02:55;11.90;99.90
17859;DHT22;35426;30.698;104.050;2022-12-08T13:05:34;12.00;99.90
17859;DHT22;35426;30.698;104.050;2022-12-08T13:08:24;11.90;99.90
17859;DHT22;35426;30.698;104.050;2022-12-08T13:11:05;11.90;99.90
17859;DHT22;35426;30.698;104.050;2022-12-08T13:13:56;11.90;99.90
17859;DHT22;35426;30.698;104.050;2022-12-08T13:16:37;11.90;99.90
17859;DHT22;35426;30.698;104.050;2022-12-08T13:19:15;11.90;99.90
17859;DHT22;35426;30.698;104.050;2022-12-08T13:21:53;11.90;99.90
17859;DHT22;35426;30.698;104.050;2022-12-08T13:24:33;11.80;99.90
17859;DHT22;35426;30.698;104.050;2022-12-08T13:27:34;11.90;99.90
17859;DHT22;35426;30.698;104.050;2022-12-08T13:33:30;11.90;99.90
17859;DHT22;35426;30.698;104.050;2022-12-08T13:36:19;11.80;99.90
17859;DHT22;35426;30.698;104.050;2022-12-08T13:38:58;11.90;99.90
17859;DHT22;35426;30.698;104.050;2022-12-08T13:41:40;11.80;99.90
17859;DHT22;35426;30.698;104.050;2022-12-08T13:44:26;11.90;99.90
17859;DHT22;35426;30.698;104.050;2022-12-08T13:47:31;11.90;99.90
17859;DHT22;35426;30.698;104.050;2022-12-08T13:50:33;11.90;99.90
17859;DHT22;35426;30.698;104.050;2022-12-08T13:53:32;11.90;99.90
17859;DHT22;35426;30.698;104.050;2022-12-08T13:56:33;11.90;99.90
17859;DHT22;35426;30.698;104.050;2022-12-08T13:59:34;11.90;99.90
17859;DHT22;35426;30.698;104.050;2022-12-08T14:02:19;11.80;99.90
17859;DHT22;35426;30.698;104.050;2022-12-08T14:05:03;11.80;99.90
17859;DHT22;35426;30.698;104.050;2022-12-08T14:08:00;11.80;99.90
17859;DHT22;35426;30.698;104.050;2022-12-08T14:10:37;11.80;99.90
17859;DHT22;35426;30.698;104.050;2022-12-08T14:13:15;11.90;99.90
17859;DHT22;35426;30.698;104.050;2022-12-08T14:15:55;11.90;99.90
17859;DHT22;35426;30.698;104.050;2022-12-08T14:18:34;11.90;99.90
17859;DHT22;35426;30.698;104.050;2022-12-08T14:21:13;11.90;99.90
17859;DHT22;35426;30.698;104.050;2022-12-08T14:23:52;11.90;99.90
17859;DHT22;35426;30.698;104.050;2022-12-08T14:26:32;11.80;99.90
17859;DHT22;35426;30.698;104.050;2022-12-08T14:29:37;11.90;99.90
17859;DHT22;35426;30.698;104.050;2022-12-08T14:32:27;11.80;99.90
17859;DHT22;35426;30.698;104.050;2022-12-08T14:35:18;11.80;99.90
17859;DHT22;35426;30.698;104.050;2022-12-08T14:37:57;11.80;99.90
17859;DHT22;35426;30.698;104.050;2022-12-08T14:40:36;11.90;99.90
17859;DHT22;35426;30.698;104.050;2022-12-08T14:43:16;12.00;99.90
17859;DHT22;35426;30.698;104.050;2022-12-08T14:46:11;11.80;99.90
17859;DHT22;35426;30.698;104.050;2022-12-08T14:48:57;11.80;99.90
17859;DHT22;35426;30.698;104.050;2022-12-08T14:51:35;11.70;99.90
17859;DHT22;35426;30.698;104.050;2022-12-08T14:54:18;11.80;99.90
17859;DHT22;35426;30.698;104.050;2022-12-08T14:56:56;11.80;99.90
17859;DHT22;35426;30.698;104.050;2022-12-08T14:59:35;11.80;99.90
17859;DHT22;35426;30.698;104.050;2022-12-08T15:02:26;11.80;99.90
17859;DHT22;35426;30.698;104.050;2022-12-08T15:05:12;11.80;99.90
17859;DHT22;35426;30.698;104.050;2022-12-08T15:07:52;11.70;99.90
17859;DHT22;35426;30.698;104.050;2022-12-08T15:10:36;11.60;99.90
17859;DHT22;35426;30.698;104.050;2022-12-08T15:13:23;11.50;99.90
17859;DHT22;35426;30.698;104.050;2022-12-08T15:16:00;11.40;99.90
17859;DHT22;35426;30.698;104.050;2022-12-08T15:18:38;11.30;99.90
17859;DHT22;35426;30.698;104.050;2022-12-08T15:21:18;11.40;99.90
17859;DHT22;35426;30.698;104.050;2022-12-08T15:23:55;11.40;99.90
17859;DHT22;35426;30.698;104.050;2022-12-08T15:26:38;11.40;99.90
17859;DHT22;35426;30.698;104.050;2022-12-08T15:29:21;11.40;99.90
17859;DHT22;35426;30.698;104.050;2022-12-08T15:31:59;11.40;99.90
17859;DHT22;35426;30.698;104.050;2022-12-08T15:34:36;11.40;99.90
17859;DHT22;35426;30.698;104.050;2022-12-08T15:37:20;11.40;99.90
17859;DHT22;35426;30.698;104.050;2022-12-08T15:39:57;11.50;99.90
17859;DHT22;35426;30.698;104.050;2022-12-08T15:42:35;11.50;99.90
17859;DHT22;35426;30.698;104.050;2022-12-08T15:45:13;11.50;99.90
17859;DHT22;35426;30.698;104.050;2022-12-08T15:47:49;11.60;99.90
17859;DHT22;35426;30.698;104.050;2022-12-08T15:50:26;11.60;99.90
17859;DHT22;35426;30.698;104.050;2022-12-08T15:53:07;11.50;99.90
17859;DHT22;35426;30.698;104.050;2022-12-08T15:55:46;11.40;99.90
17859;DHT22;35426;30.698;104.050;2022-12-08T15:58:43;11.40;99.90
17859;DHT22;35426;30.698;104.050;2022-12-08T16:01:25;11.40;99.90
17859;DHT22;35426;30.698;104.050;2022-12-08T16:04:01;11.30;99.90
17859;DHT22;35426;30.698;104.050;2022-12-08T16:06:56;11.30;99.90
17859;DHT22;35426;30.698;104.050;2022-12-08T16:09:53;11.30;99.90
17859;DHT22;35426;30.698;104.050;2022-12-08T16:12:27;11.40;99.90
17859;DHT22;35426;30.698;104.050;2022-12-08T16:15:39;11.40;99.90
17859;DHT22;35426;30.698;104.050;2022-12-08T16:18:28;11.30;99.90
17859;DHT22;35426;30.698;104.050;2022-12-08T16:21:03;11.30;99.90
17859;DHT22;35426;30.698;104.050;2022-12-08T16:23:58;11.40;99.90
17859;DHT22;35426;30.698;104.050;2022-12-08T16:26:40;11.50;99.90
17859;DHT22;35426;30.698;104.050;2022-12-08T16:29:34;11.50;99.90